Time;durP1;ratioP1;P1;durP2;ratioP2;P2;SDS_P1;SDS_P2;PMS_P1;PMS_P2;Temp;Humidity;BMP_temperature;BMP_pressure;BME280_temperature;BME280_humidity;BME280_pressure;Samples;Min_cycle;Max_cycle;Signal;HPM_P1;HPM_P2
2022/04/04 00:00:20;;;;;;;4.80;2.80;;;5.70;94.20;;;;;;5056533;28;20060;-78
2022/04/04 00:02:45;;;;;;;4.97;2.80;;;5.70;94.20;;;;;;5056862;28;20053;-78
2022/04/04 00:05:11;;;;;;;4.18;2.80;;;5.70;94.30;;;;;;5056376;28;20032;-79
2022/04/04 00:07:38;;;;;;;3.25;2.70;;;5.70;94.40;;;;;;5056836;28;20025;-79
2022/04/04 00:10:04;;;;;;;6.03;3.05;;;5.70;94.40;;;;;;5056013;28;20053;-77
2022/04/04 00:12:30;;;;;;;5.22;2.45;;;5.70;94.60;;;;;;5056240;28;20067;-78
2022/04/04 00:14:56;;;;;;;5.18;2.80;;;5.60;94.60;;;;;;5056283;28;20409;-78
2022/04/04 00:17:23;;;;;;;4.63;2.67;;;5.60;94.90;;;;;;5055991;28;20060;-78
2022/04/04 00:19:49;;;;;;;4.20;2.88;;;5.60;95.00;;;;;;5056093;28;20111;-78
2022/04/04 00:22:14;;;;;;;5.25;2.53;;;5.50;95.00;;;;;;5056175;28;20492;-78
2022/04/04 00:24:40;;;;;;;4.30;3.05;;;5.40;95.10;;;;;;5055900;28;20483;-78
2022/04/04 00:27:06;;;;;;;6.53;2.45;;;5.40;95.10;;;;;;5056001;28;20033;-78
2022/04/04 00:29:32;;;;;;;5.75;3.00;;;5.30;95.20;;;;;;5055753;28;20039;-78
2022/04/04 00:31:57;;;;;;;6.72;2.80;;;5.30;95.40;;;;;;5055962;28;20426;-78
2022/04/04 00:34:23;;;;;;;3.75;2.35;;;5.20;95.40;;;;;;5055619;28;20044;-78
2022/04/04 00:36:48;;;;;;;4.13;2.50;;;5.20;95.50;;;;;;5055311;28;20033;-78
2022/04/04 00:39:16;;;;;;;4.00;2.20;;;5.20;95.50;;;;;;5055824;28;20091;-78
2022/04/04 00:41:43;;;;;;;4.70;2.75;;;5.10;95.60;;;;;;5055822;28;20037;-78
2022/04/04 00:44:09;;;;;;;5.78;2.70;;;5.10;95.50;;;;;;5055576;28;20480;-77
2022/04/04 00:46:38;;;;;;;4.05;2.38;;;5.10;95.60;;;;;;5055431;28;20036;-78
2022/04/04 00:49:05;;;;;;;2.85;2.22;;;5.10;95.70;;;;;;5055506;28;20045;-78
2022/04/04 00:51:30;;;;;;;5.63;2.53;;;5.10;95.70;;;;;;5055851;28;20025;-77
2022/04/04 00:53:56;;;;;;;4.60;2.80;;;5.00;95.90;;;;;;5055150;28;20098;-77
2022/04/04 00:56:22;;;;;;;4.82;2.97;;;5.00;96.00;;;;;;5055557;28;20053;-77
2022/04/04 00:58:48;;;;;;;6.82;3.15;;;5.00;96.10;;;;;;5055438;28;20021;-77
2022/04/04 01:01:13;;;;;;;6.75;3.05;;;4.90;96.10;;;;;;5055126;28;20373;-77
2022/04/04 01:03:39;;;;;;;4.97;2.90;;;4.90;96.50;;;;;;5055105;28;20062;-77
2022/04/04 01:06:05;;;;;;;5.82;3.47;;;4.90;96.40;;;;;;5055384;28;20029;-77
2022/04/04 01:08:31;;;;;;;6.82;3.50;;;4.90;96.50;;;;;;5054043;28;20025;-77
2022/04/04 01:10:57;;;;;;;7.70;3.40;;;4.90;96.50;;;;;;5054212;28;20412;-77
2022/04/04 01:13:23;;;;;;;7.10;4.15;;;5.00;96.60;;;;;;5055423;28;20033;-77
2022/04/04 01:15:48;;;;;;;4.68;3.60;;;4.90;96.70;;;;;;5054914;28;20082;-77
2022/04/04 01:18:14;;;;;;;8.13;3.60;;;5.00;96.80;;;;;;5055086;28;20472;-79
2022/04/04 01:20:39;;;;;;;6.93;4.68;;;5.00;96.80;;;;;;5054903;28;20029;-78
2022/04/04 01:23:06;;;;;;;6.57;4.80;;;5.00;96.70;;;;;;5054891;28;20472;-79
2022/04/04 01:25:33;;;;;;;8.18;4.72;;;5.00;96.70;;;;;;5054702;28;20033;-78
2022/04/04 01:28:00;;;;;;;7.22;4.43;;;5.00;96.90;;;;;;5054872;28;20039;-79
2022/04/04 01:30:26;;;;;;;7.18;4.78;;;5.00;96.90;;;;;;5054526;28;20076;-79
2022/04/04 01:32:53;;;;;;;7.18;4.30;;;4.90;96.90;;;;;;5054459;28;20397;-79
2022/04/04 01:35:20;;;;;;;8.38;5.18;;;4.90;96.90;;;;;;5054199;28;20047;-79
2022/04/04 01:37:46;;;;;;;6.18;4.40;;;4.90;97.00;;;;;;5054909;28;20025;-79
2022/04/04 01:40:12;;;;;;;6.78;4.35;;;4.90;97.00;;;;;;5054367;28;20041;-79
2022/04/04 01:42:39;;;;;;;6.38;4.70;;;4.90;96.90;;;;;;5054826;28;20594;-79
2022/04/04 01:45:07;;;;;;;9.63;5.07;;;4.90;96.80;;;;;;5053845;28;20119;-79
2022/04/04 01:47:34;;;;;;;7.18;4.72;;;4.80;96.70;;;;;;5053534;28;20036;-79
2022/04/04 01:49:59;;;;;;;8.10;4.43;;;4.80;96.70;;;;;;5053992;28;20381;-79
2022/04/04 01:52:25;;;;;;;6.78;4.50;;;4.80;96.70;;;;;;5054542;28;20035;-79
2022/04/04 01:54:51;;;;;;;8.57;4.38;;;4.70;96.50;;;;;;5054019;28;20434;-78
2022/04/04 01:57:17;;;;;;;6.20;3.72;;;4.70;96.60;;;;;;5053718;28;20033;-79
2022/04/04 01:59:43;;;;;;;6.65;4.72;;;4.70;96.60;;;;;;5054029;28;20033;-79
2022/04/04 02:02:08;;;;;;;6.55;4.75;;;4.70;96.50;;;;;;5053605;28;20037;-78
2022/04/04 02:04:35;;;;;;;5.95;3.95;;;4.60;96.50;;;;;;5054472;28;20033;-79
2022/04/04 02:07:01;;;;;;;7.32;4.60;;;4.50;96.60;;;;;;5054421;28;20094;-79
2022/04/04 02:09:26;;;;;;;8.48;4.00;;;4.50;96.80;;;;;;5053850;28;20055;-79
2022/04/04 02:11:52;;;;;;;5.70;3.95;;;4.50;96.80;;;;;;5054097;28;20528;-79
2022/04/04 02:14:17;;;;;;;9.73;5.25;;;4.60;97.00;;;;;;5053792;28;20037;-79
2022/04/04 02:16:45;;;;;;;8.48;4.97;;;4.60;96.90;;;;;;5053765;28;20064;-79
2022/04/04 02:19:10;;;;;;;6.55;4.70;;;4.60;96.80;;;;;;5053887;28;20075;-78
2022/04/04 02:21:37;;;;;;;6.82;4.32;;;4.60;96.90;;;;;;5054125;28;20515;-78
2022/04/04 02:24:04;;;;;;;8.07;4.80;;;4.60;97.00;;;;;;5053968;28;20051;-79
2022/04/04 02:26:29;;;;;;;6.15;5.03;;;4.60;96.90;;;;;;5053284;28;20460;-79
2022/04/04 02:28:55;;;;;;;6.10;4.45;;;4.60;96.90;;;;;;5053799;28;20082;-78
2022/04/04 02:31:21;;;;;;;8.50;4.68;;;4.70;96.80;;;;;;5053827;28;20472;-79
2022/04/04 02:33:46;;;;;;;5.95;4.78;;;4.70;96.60;;;;;;5053595;28;20035;-79
2022/04/04 02:36:12;;;;;;;8.02;5.15;;;4.60;96.50;;;;;;5053118;28;20048;-79
2022/04/04 02:38:38;;;;;;;8.57;5.55;;;4.70;96.50;;;;;;5053452;28;20017;-79
2022/04/04 02:41:05;;;;;;;8.50;5.55;;;4.70;96.50;;;;;;5053577;28;20037;-78
2022/04/04 02:43:31;;;;;;;8.30;5.13;;;4.70;96.40;;;;;;5053394;28;20083;-78
2022/04/04 02:45:56;;;;;;;7.40;5.28;;;4.70;96.40;;;;;;5053361;28;20041;-78
2022/04/04 02:48:22;;;;;;;6.65;5.00;;;4.70;96.20;;;;;;5053316;28;20404;-78
2022/04/04 02:50:48;;;;;;;7.65;5.63;;;4.70;96.00;;;;;;5053694;28;20100;-79
2022/04/04 02:53:14;;;;;;;7.82;5.03;;;4.60;96.30;;;;;;5053235;28;20379;-78
2022/04/04 02:58:27;;;;;;;6.82;5.05;;;4.70;96.20;;;;;;5053116;28;20115;-79
2022/04/04 03:00:53;;;;;;;8.15;6.25;;;4.70;96.00;;;;;;5053329;28;20028;-78
2022/04/04 03:03:19;;;;;;;10.65;5.00;;;4.70;96.20;;;;;;5052567;28;20031;-78
2022/04/04 03:05:46;;;;;;;8.05;6.15;;;4.80;96.20;;;;;;5053120;28;20404;-78
2022/04/04 03:08:12;;;;;;;8.68;5.95;;;4.80;96.20;;;;;;5053016;28;20029;-77
2022/04/04 03:10:38;;;;;;;11.65;6.47;;;4.80;96.40;;;;;;5052319;28;20044;-78
2022/04/04 03:13:05;;;;;;;11.15;6.22;;;4.80;95.80;;;;;;5053142;28;20029;-78
2022/04/04 03:15:35;;;;;;;9.65;6.28;;;4.80;95.80;;;;;;5036938;28;20040;-78
2022/04/04 03:18:03;;;;;;;7.88;6.22;;;4.80;95.90;;;;;;5052727;28;20476;-78
2022/04/04 03:20:30;;;;;;;8.52;5.90;;;4.80;95.70;;;;;;5052390;28;20388;-78
2022/04/04 03:22:57;;;;;;;9.45;6.50;;;4.70;95.60;;;;;;5052871;28;20096;-78
2022/04/04 03:25:24;;;;;;;9.40;6.72;;;4.70;95.60;;;;;;5052482;28;20059;-78
2022/04/04 03:27:50;;;;;;;10.50;6.95;;;4.70;95.60;;;;;;5053407;28;20469;-78
2022/04/04 03:30:23;;;;;;;9.90;6.45;;;4.70;95.60;;;;;;5052873;28;20036;-75
2022/04/04 03:32:49;;;;;;;7.53;5.93;;;4.70;95.60;;;;;;5059926;28;20036;-78
2022/04/04 03:35:17;;;;;;;8.57;6.07;;;4.70;95.50;;;;;;5059388;28;20044;-78
2022/04/04 03:37:46;;;;;;;10.32;6.13;;;4.60;95.50;;;;;;5055680;28;20502;-79
2022/04/04 03:40:13;;;;;;;13.57;6.68;;;4.60;95.50;;;;;;5059678;28;20029;-78
2022/04/04 03:42:40;;;;;;;8.43;6.40;;;4.60;95.50;;;;;;5059791;28;20380;-78
2022/04/04 03:45:06;;;;;;;8.85;5.82;;;4.60;95.70;;;;;;5059338;28;20502;-78
2022/04/04 03:47:35;;;;;;;8.68;6.18;;;4.60;95.90;;;;;;5059977;28;20020;-78
2022/04/04 03:50:01;;;;;;;13.27;6.63;;;4.60;96.00;;;;;;5059265;28;20366;-78
2022/04/04 03:52:26;;;;;;;10.68;6.28;;;4.60;95.90;;;;;;5059357;28;20086;-78
2022/04/04 03:54:52;;;;;;;9.20;6.20;;;4.60;96.10;;;;;;5059759;28;20475;-78
2022/04/04 03:57:18;;;;;;;7.97;6.40;;;4.60;95.80;;;;;;5059632;28;20025;-78
2022/04/04 03:59:44;;;;;;;8.68;6.40;;;4.70;95.80;;;;;;5059959;28;20025;-78
2022/04/04 04:02:11;;;;;;;10.48;6.53;;;4.70;95.80;;;;;;5059453;28;20037;-77
2022/04/04 04:04:37;;;;;;;17.13;6.75;;;4.70;96.00;;;;;;5059290;28;20024;-78
2022/04/04 04:07:03;;;;;;;11.73;6.60;;;4.70;96.10;;;;;;5059796;28;20033;-78
2022/04/04 04:09:29;;;;;;;8.82;6.30;;;4.70;96.00;;;;;;5059268;28;20048;-79
2022/04/04 04:11:55;;;;;;;7.53;6.30;;;4.70;96.00;;;;;;5059358;28;20027;-79
2022/04/04 04:14:22;;;;;;;10.88;6.35;;;4.70;95.80;;;;;;5059168;28;20484;-78
2022/04/04 04:16:47;;;;;;;9.40;5.88;;;4.70;96.00;;;;;;5059278;28;20032;-78
2022/04/04 04:21:58;;;;;;;16.15;6.70;;;4.70;95.60;;;;;;5059443;28;20498;-77
2022/04/04 04:24:24;;;;;;;10.95;6.45;;;4.70;95.60;;;;;;5058927;28;20060;-77
2022/04/04 04:26:50;;;;;;;12.32;5.97;;;4.70;95.50;;;;;;5059438;28;20056;-77
2022/04/04 04:29:16;;;;;;;8.10;6.03;;;4.70;95.70;;;;;;5059263;28;20033;-77
2022/04/04 04:31:42;;;;;;;9.25;6.25;;;4.70;95.90;;;;;;5058887;28;20025;-77
2022/04/04 04:34:08;;;;;;;10.35;6.18;;;4.70;96.20;;;;;;5058767;28;20035;-77
2022/04/04 04:36:33;;;;;;;8.23;6.05;;;4.70;96.30;;;;;;5058850;28;20124;-78
2022/04/04 04:38:59;;;;;;;11.98;6.28;;;4.70;96.30;;;;;;5059226;28;20490;-78
2022/04/04 04:41:25;;;;;;;10.23;6.45;;;4.70;96.10;;;;;;5059167;28;20029;-78
2022/04/04 04:43:51;;;;;;;10.75;6.47;;;4.70;96.40;;;;;;5054780;28;20350;-78
2022/04/04 04:46:16;;;;;;;10.30;6.47;;;4.80;96.60;;;;;;5055511;28;20037;-77
2022/04/04 04:48:45;;;;;;;9.10;5.47;;;4.80;96.70;;;;;;5055540;28;20385;-78
2022/04/04 04:51:11;;;;;;;9.60;6.38;;;4.80;96.70;;;;;;5055507;28;20070;-77
2022/04/04 04:53:37;;;;;;;10.50;6.38;;;4.90;96.90;;;;;;5055638;28;20044;-78
2022/04/04 04:56:09;;;;;;;8.30;5.47;;;4.90;96.60;;;;;;5055173;28;20045;-78
2022/04/04 04:58:34;;;;;;;10.68;6.05;;;4.90;96.60;;;;;;5055356;28;20028;-78
2022/04/04 05:01:00;;;;;;;11.02;5.82;;;5.00;96.60;;;;;;5055538;28;20032;-78
2022/04/04 05:03:26;;;;;;;10.23;6.30;;;5.00;96.70;;;;;;5054894;28;20106;-77
2022/04/04 05:05:52;;;;;;;8.15;6.22;;;5.00;96.80;;;;;;5055208;28;20098;-78
2022/04/04 05:08:18;;;;;;;10.32;5.93;;;5.00;96.90;;;;;;5055212;28;20036;-77
2022/04/04 05:10:44;;;;;;;10.02;6.30;;;5.00;96.70;;;;;;5054813;28;20049;-78
2022/04/04 05:13:10;;;;;;;13.43;6.57;;;5.00;96.70;;;;;;5054669;28;20075;-78
2022/04/04 05:15:36;;;;;;;11.13;6.70;;;5.10;96.70;;;;;;5054897;28;20155;-78
2022/04/04 05:18:01;;;;;;;11.88;6.38;;;5.10;96.40;;;;;;5054347;28;20037;-78
2022/04/04 05:20:28;;;;;;;8.95;6.53;;;5.10;96.50;;;;;;5054815;28;20388;-78
2022/04/04 05:22:53;;;;;;;12.63;7.25;;;5.10;96.60;;;;;;5054982;28;20124;-78
2022/04/04 05:25:19;;;;;;;14.23;8.23;;;5.10;96.50;;;;;;5054076;28;20476;-77
2022/04/04 05:27:44;;;;;;;9.77;6.88;;;5.20;96.50;;;;;;5054502;28;20025;-78
2022/04/04 05:30:10;;;;;;;11.05;6.85;;;5.20;96.40;;;;;;5054510;28;20029;-77
2022/04/04 05:32:36;;;;;;;9.77;6.18;;;5.20;96.30;;;;;;5054545;28;20051;-76
2022/04/04 05:35:06;;;;;;;12.02;7.40;;;5.10;96.30;;;;;;5054266;28;20045;-77
2022/04/04 05:37:32;;;;;;;13.55;7.30;;;5.20;96.40;;;;;;5054875;28;20029;-78
2022/04/04 05:39:58;;;;;;;10.85;6.70;;;5.20;96.50;;;;;;5054321;28;20421;-77
2022/04/04 05:42:24;;;;;;;11.73;6.78;;;5.20;96.30;;;;;;5053666;28;20110;-77
2022/04/04 05:44:49;;;;;;;9.52;6.43;;;5.20;96.30;;;;;;5054385;28;20025;-77
2022/04/04 05:47:19;;;;;;;10.85;6.82;;;5.20;96.40;;;;;;5053872;28;20116;-76
2022/04/04 05:49:48;;;;;;;10.05;6.65;;;5.30;96.40;;;;;;5054121;28;20025;-76
2022/04/04 05:52:15;;;;;;;11.57;6.70;;;5.30;96.10;;;;;;5054445;28;20155;-77
2022/04/04 05:54:54;;;;;;;11.27;6.40;;;5.30;96.00;;;;;;5053401;28;20021;-77
2022/04/04 05:57:27;;;;;;;11.82;6.65;;;5.40;96.00;;;;;;5053853;28;20094;-77
2022/04/04 05:59:53;;;;;;;10.52;6.60;;;5.40;96.00;;;;;;5054303;28;20032;-82
2022/04/04 06:02:22;;;;;;;12.10;6.47;;;5.40;96.00;;;;;;5053921;28;20033;-80
2022/04/04 06:04:48;;;;;;;11.52;6.18;;;5.50;95.80;;;;;;5053554;28;20040;-85
2022/04/04 06:07:14;;;;;;;11.13;5.97;;;5.50;95.50;;;;;;5053526;28;20032;-82
2022/04/04 06:09:40;;;;;;;9.52;6.07;;;5.50;95.60;;;;;;5040038;28;20056;-87
2022/04/04 06:12:06;;;;;;;9.27;6.47;;;5.60;95.80;;;;;;5051099;28;20041;-83
2022/04/04 06:14:32;;;;;;;11.85;7.28;;;5.60;95.70;;;;;;5052284;28;20112;-81
2022/04/04 06:16:57;;;;;;;10.57;6.43;;;5.60;95.60;;;;;;5052589;28;20431;-79
2022/04/04 06:19:23;;;;;;;17.13;6.75;;;5.60;95.30;;;;;;5053142;28;20507;-77
2022/04/04 06:21:48;;;;;;;9.40;6.30;;;5.60;95.40;;;;;;5053111;28;20511;-78
2022/04/04 06:24:14;;;;;;;9.70;6.60;;;5.70;95.50;;;;;;5052981;28;20426;-78
2022/04/04 06:26:40;;;;;;;13.63;6.75;;;5.70;95.40;;;;;;5053219;28;20033;-77
2022/04/04 06:29:09;;;;;;;13.93;6.47;;;5.80;95.30;;;;;;5053192;28;20504;-79
2022/04/04 06:31:36;;;;;;;9.55;6.47;;;5.80;95.20;;;;;;5052101;28;20032;-77
2022/04/04 06:34:04;;;;;;;12.10;6.45;;;5.90;94.80;;;;;;5053010;28;20036;-78
2022/04/04 06:36:32;;;;;;;12.20;6.47;;;5.90;94.70;;;;;;5053090;28;20048;-82
2022/04/04 06:38:58;;;;;;;9.75;6.18;;;6.00;94.70;;;;;;5053347;28;20017;-78
2022/04/04 06:41:25;;;;;;;9.35;6.30;;;6.00;94.70;;;;;;5052595;28;20370;-79
2022/04/04 06:43:51;;;;;;;9.05;6.50;;;6.10;94.40;;;;;;5053023;28;20495;-78
2022/04/04 06:46:18;;;;;;;8.63;6.78;;;6.10;94.40;;;;;;5052991;28;20032;-78
2022/04/04 06:48:45;;;;;;;13.20;5.78;;;6.20;94.20;;;;;;5053433;28;20111;-78
2022/04/04 06:51:11;;;;;;;17.30;5.93;;;6.20;93.80;;;;;;5052795;28;20476;-78
2022/04/04 06:53:37;;;;;;;8.25;5.85;;;6.20;93.50;;;;;;5053193;28;20033;-77
2022/04/04 06:56:04;;;;;;;12.30;5.72;;;6.30;93.80;;;;;;5052598;28;20115;-77
2022/04/04 06:58:29;;;;;;;10.77;6.28;;;6.30;93.70;;;;;;5052815;28;20028;-77
2022/04/04 07:00:55;;;;;;;8.60;5.88;;;6.30;93.30;;;;;;5052903;28;20031;-77
2022/04/04 07:03:21;;;;;;;10.57;5.65;;;6.30;93.20;;;;;;5052483;28;20075;-77
2022/04/04 07:05:46;;;;;;;16.20;6.97;;;6.30;92.90;;;;;;5051668;28;20033;-79
2022/04/04 07:08:12;;;;;;;11.05;5.05;;;6.40;93.10;;;;;;5052502;28;20033;-80
2022/04/04 07:10:38;;;;;;;8.63;5.10;;;6.40;92.90;;;;;;5052418;28;20052;-80
2022/04/04 07:13:06;;;;;;;7.88;4.65;;;6.40;92.80;;;;;;5052777;28;20108;-77
2022/04/04 07:15:33;;;;;;;6.45;4.70;;;6.50;92.80;;;;;;5047386;28;20033;-78
2022/04/04 07:17:58;;;;;;;14.93;5.20;;;6.50;92.50;;;;;;5051609;28;20031;-77
2022/04/04 07:20:24;;;;;;;11.65;4.85;;;6.50;92.40;;;;;;5052160;28;20033;-76
2022/04/04 07:22:51;;;;;;;9.07;5.22;;;6.60;92.70;;;;;;5052669;28;20033;-77
2022/04/04 07:25:16;;;;;;;9.23;5.80;;;6.60;92.90;;;;;;5051908;28;20111;-78
2022/04/04 07:27:45;;;;;;;7.88;4.93;;;6.60;92.90;;;;;;5052787;28;20052;-78
2022/04/04 07:30:14;;;;;;;11.48;4.60;;;6.60;92.70;;;;;;5051266;28;20029;-78
2022/04/04 07:32:40;;;;;;;11.77;5.38;;;6.70;93.00;;;;;;5052018;28;20499;-81
2022/04/04 07:35:11;;;;;;;8.57;4.80;;;6.70;93.00;;;;;;5051119;28;20056;-81
2022/04/04 07:37:39;;;;;;;8.32;4.97;;;6.70;93.00;;;;;;5045999;28;20029;-77
2022/04/04 07:40:06;;;;;;;5.97;4.95;;;6.80;93.30;;;;;;5051319;28;20040;-78
2022/04/04 07:42:32;;;;;;;6.97;4.95;;;6.80;93.50;;;;;;5050898;28;20025;-78
2022/04/04 07:44:58;;;;;;;9.80;5.68;;;6.80;93.80;;;;;;5051097;28;20376;-77
2022/04/04 07:47:24;;;;;;;12.55;6.32;;;6.80;94.30;;;;;;5050774;28;20462;-78
2022/04/04 07:49:50;;;;;;;9.90;5.80;;;6.80;94.80;;;;;;5051296;28;20036;-80
2022/04/04 07:52:16;;;;;;;8.93;6.43;;;6.80;94.90;;;;;;5049302;28;20025;-80
2022/04/04 07:54:42;;;;;;;12.88;6.28;;;6.80;95.30;;;;;;5051247;28;20029;-81
2022/04/04 07:57:08;;;;;;;12.57;6.72;;;6.70;96.00;;;;;;5052244;28;20052;-81
2022/04/04 07:59:34;;;;;;;12.45;6.30;;;6.70;96.70;;;;;;5051195;28;20025;-81
2022/04/04 08:01:59;;;;;;;11.55;6.70;;;6.60;96.30;;;;;;5052683;28;20423;-80
2022/04/04 08:04:25;;;;;;;9.93;7.15;;;6.60;96.80;;;;;;5052360;28;20053;-81
2022/04/04 08:06:50;;;;;;;11.02;7.57;;;6.60;97.30;;;;;;5051929;28;20025;-81
2022/04/04 08:09:16;;;;;;;10.65;7.22;;;6.60;97.80;;;;;;5051947;28;20052;-81
2022/04/04 08:11:42;;;;;;;14.90;8.02;;;6.60;97.90;;;;;;5052184;28;20384;-82
2022/04/04 08:14:08;;;;;;;11.88;6.88;;;6.60;98.30;;;;;;5051446;28;20029;-81
2022/04/04 08:16:35;;;;;;;11.55;7.35;;;6.50;98.30;;;;;;5051801;28;20033;-82
2022/04/04 08:19:01;;;;;;;13.25;7.47;;;6.50;98.10;;;;;;5055737;28;20017;-82
2022/04/04 08:21:27;;;;;;;14.02;8.60;;;6.50;98.40;;;;;;5056145;28;20060;-81
2022/04/04 08:23:52;;;;;;;9.55;7.10;;;6.50;98.30;;;;;;5055622;28;20052;-83
2022/04/04 08:26:18;;;;;;;12.07;6.93;;;6.40;98.50;;;;;;5055790;28;20532;-82
2022/04/04 08:28:44;;;;;;;10.60;7.75;;;6.50;98.50;;;;;;5056006;28;20048;-80
2022/04/04 08:31:10;;;;;;;12.43;7.63;;;6.40;98.40;;;;;;5055688;28;20137;-80
2022/04/04 08:33:37;;;;;;;12.07;7.97;;;6.50;98.90;;;;;;5056069;28;20045;-82
2022/04/04 08:36:04;;;;;;;12.20;8.23;;;6.50;98.60;;;;;;5055574;28;20067;-79
2022/04/04 08:38:30;;;;;;;10.40;7.63;;;6.50;98.80;;;;;;5055455;28;20029;-80
2022/04/04 08:41:03;;;;;;;12.15;8.02;;;6.60;98.60;;;;;;5055508;28;20139;-79
2022/04/04 08:43:35;;;;;;;10.43;7.47;;;6.60;98.50;;;;;;5055116;28;20054;-78
2022/04/04 08:46:03;;;;;;;15.40;9.30;;;6.60;98.40;;;;;;5047648;28;20033;-78
2022/04/04 08:48:30;;;;;;;10.75;7.60;;;6.70;98.50;;;;;;5055054;28;20476;-79
2022/04/04 08:50:57;;;;;;;16.35;7.80;;;6.70;98.00;;;;;;5055397;28;20047;-78
2022/04/04 08:53:23;;;;;;;10.88;8.00;;;6.70;98.20;;;;;;5055498;28;20028;-81
2022/04/04 08:55:48;;;;;;;16.45;8.60;;;6.80;98.30;;;;;;5054820;28;20349;-79
2022/04/04 08:58:15;;;;;;;12.35;8.23;;;6.80;98.30;;;;;;5054996;28;20047;-79
2022/04/04 09:00:41;;;;;;;10.88;7.93;;;6.80;97.90;;;;;;5054960;28;20067;-77
2022/04/04 09:03:09;;;;;;;14.52;7.93;;;6.80;97.90;;;;;;5054219;28;20036;-78
2022/04/04 09:05:51;;;;;;;15.20;8.95;;;6.80;97.90;;;;;;5055163;28;20469;-78
2022/04/04 09:08:20;;;;;;;15.40;9.38;;;6.80;98.00;;;;;;5060004;28;20057;-78
2022/04/04 09:10:46;;;;;;;11.70;7.97;;;6.80;98.20;;;;;;5055894;28;20042;-79
2022/04/04 09:13:19;;;;;;;15.30;8.93;;;6.80;98.60;;;;;;5054688;28;20036;-79
2022/04/04 09:15:54;;;;;;;15.32;9.02;;;6.80;99.10;;;;;;5071221;28;20041;-79
2022/04/04 09:18:40;;;;;;;15.27;9.13;;;6.70;99.50;;;;;;5075580;28;20103;-79
2022/04/04 09:21:26;;;;;;;12.95;9.73;;;6.70;99.90;;;;;;5070760;28;20033;-78
2022/04/04 09:23:58;;;;;;;13.77;9.40;;;6.70;99.90;;;;;;5055036;28;20021;-78
2022/04/04 09:26:31;;;;;;;18.40;8.98;;;6.70;99.90;;;;;;5055368;28;20047;-78
2022/04/04 09:29:06;;;;;;;17.45;10.30;;;6.70;99.90;;;;;;5054328;28;20523;-78
2022/04/04 09:31:32;;;;;;;16.08;10.18;;;6.60;99.90;;;;;;5054741;28;20033;-78
2022/04/04 09:34:03;;;;;;;16.23;10.52;;;6.60;99.90;;;;;;5054588;28;20021;-78
2022/04/04 09:36:31;;;;;;;20.48;10.27;;;6.50;99.90;;;;;;5054929;28;20495;-78
2022/04/04 09:39:05;;;;;;;13.40;9.85;;;6.50;99.90;;;;;;5053959;28;20025;-78
2022/04/04 09:41:34;;;;;;;15.80;10.55;;;6.50;99.90;;;;;;5053488;28;20025;-78
2022/04/04 09:44:14;;;;;;;19.17;10.55;;;6.50;99.90;;;;;;5053403;28;20021;-78
2022/04/04 09:46:50;;;;;;;12.10;9.30;;;6.50;99.90;;;;;;5050633;28;20052;-78
2022/04/04 09:49:20;;;;;;;13.52;9.70;;;6.50;99.90;;;;;;5053497;28;20025;-78
2022/04/04 09:51:51;;;;;;;14.18;9.88;;;6.50;99.90;;;;;;5053563;28;20052;-79
2022/04/04 09:54:23;;;;;;;14.20;9.10;;;6.50;99.90;;;;;;5053416;28;20036;-78
2022/04/04 09:56:53;;;;;;;13.05;9.23;;;6.50;99.90;;;;;;5052908;28;20041;-78
2022/04/04 09:59:19;;;;;;;15.30;10.07;;;6.50;99.90;;;;;;5053213;28;20372;-78
2022/04/04 10:01:46;;;;;;;14.90;10.75;;;6.50;99.90;;;;;;5053102;28;20465;-78
2022/04/04 10:04:13;;;;;;;14.02;10.40;;;6.50;99.90;;;;;;5051720;28;20377;-78
2022/04/04 10:06:40;;;;;;;14.82;10.20;;;6.50;99.90;;;;;;5050646;28;20122;-79
2022/04/04 10:09:06;;;;;;;14.18;10.38;;;6.50;99.90;;;;;;5052409;28;20036;-77
2022/04/04 10:11:36;;;;;;;14.05;9.93;;;6.50;99.90;;;;;;5053117;28;20487;-77
2022/04/04 10:14:02;;;;;;;14.32;10.00;;;6.50;99.90;;;;;;5050157;28;20112;-79
2022/04/04 10:16:28;;;;;;;14.32;9.98;;;6.50;99.90;;;;;;5053310;28;20037;-78
2022/04/04 10:18:55;;;;;;;15.60;10.88;;;6.50;99.90;;;;;;5053768;28;20078;-79
2022/04/04 10:21:21;;;;;;;14.52;10.13;;;6.50;99.90;;;;;;5052612;28;20403;-78
2022/04/04 10:23:54;;;;;;;10.82;8.40;;;6.50;99.90;;;;;;5049835;28;20029;-80
2022/04/04 10:26:24;;;;;;;13.68;10.02;;;6.50;99.90;;;;;;5052883;28;20044;-78
2022/04/04 10:28:50;;;;;;;15.65;8.63;;;6.50;99.90;;;;;;5052188;28;20503;-78
2022/04/04 10:31:29;;;;;;;10.27;7.80;;;6.50;99.90;;;;;;5052080;28;20025;-79
2022/04/04 10:34:09;;;;;;;11.52;8.32;;;6.40;99.90;;;;;;5052082;28;20103;-77
2022/04/04 10:36:34;;;;;;;12.50;8.20;;;6.50;99.90;;;;;;5051900;28;20049;-78
2022/04/04 10:39:00;;;;;;;14.68;8.32;;;6.50;99.90;;;;;;5053086;28;20052;-79
2022/04/04 10:41:30;;;;;;;10.40;8.10;;;6.50;99.90;;;;;;5052119;28;20549;-79
2022/04/04 10:44:08;;;;;;;11.55;8.48;;;6.50;99.90;;;;;;5052971;28;20036;-79
2022/04/04 10:46:34;;;;;;;14.73;9.05;;;6.50;99.90;;;;;;5053546;28;20032;-77
2022/04/04 10:49:04;;;;;;;14.35;9.27;;;6.50;99.90;;;;;;5052971;28;20078;-78
2022/04/04 10:51:31;;;;;;;12.48;8.32;;;6.50;99.90;;;;;;5052742;28;20484;-79
2022/04/04 10:54:08;;;;;;;10.80;8.35;;;6.60;99.90;;;;;;5052743;28;20040;-81
2022/04/04 10:56:37;;;;;;;8.40;7.47;;;6.50;99.90;;;;;;5045508;28;20127;-77
2022/04/04 10:59:15;;;;;;;10.98;7.72;;;6.50;99.90;;;;;;5052946;28;20357;-78
2022/04/04 11:01:54;;;;;;;12.57;8.38;;;6.50;99.90;;;;;;5052848;28;20020;-78
2022/04/04 11:04:27;;;;;;;11.60;8.60;;;6.50;99.90;;;;;;5052921;28;20083;-79
2022/04/04 11:10:03;;;;;;;8.13;6.28;;;6.60;99.90;;;;;;5050220;28;20064;-79
2022/04/04 11:12:49;;;;;;;9.98;6.57;;;6.60;99.90;;;;;;5052172;28;20037;-79
2022/04/04 11:15:15;;;;;;;11.02;7.05;;;6.50;99.90;;;;;;5052214;28;20071;-80
2022/04/04 11:17:56;;;;;;;9.75;6.97;;;6.60;99.90;;;;;;5053191;28;20495;-80
2022/04/04 11:20:31;;;;;;;7.38;5.88;;;6.60;99.90;;;;;;5052619;28;20414;-79
2022/04/04 11:23:01;;;;;;;8.55;5.63;;;6.60;99.90;;;;;;5052192;28;20108;-79
2022/04/04 11:25:33;;;;;;;7.40;5.88;;;6.60;99.90;;;;;;5046513;28;20025;-80
2022/04/04 11:28:06;;;;;;;7.30;5.50;;;6.60;99.90;;;;;;5052848;28;20029;-79
2022/04/04 11:30:32;;;;;;;7.73;5.30;;;6.60;99.90;;;;;;5043355;28;20053;-79
2022/04/04 11:32:59;;;;;;;7.45;5.68;;;6.60;99.90;;;;;;5052652;28;20032;-80
2022/04/04 11:35:27;;;;;;;7.07;5.93;;;6.70;99.90;;;;;;5052257;28;20511;-81
2022/04/04 11:38:02;;;;;;;7.95;6.15;;;6.70;99.90;;;;;;5052283;28;20025;-80
2022/04/04 11:40:34;;;;;;;8.45;6.25;;;6.70;99.90;;;;;;5051650;28;20151;-80
2022/04/04 11:43:07;;;;;;;8.98;6.10;;;6.80;99.90;;;;;;5052462;28;20037;-79
2022/04/04 11:45:36;;;;;;;11.93;7.15;;;6.80;99.90;;;;;;5036819;28;20074;-79
2022/04/04 11:48:06;;;;;;;9.65;6.05;;;6.80;99.90;;;;;;5052794;28;20033;-80
2022/04/04 11:50:37;;;;;;;8.10;5.63;;;6.70;99.90;;;;;;5050457;28;20067;-81
2022/04/04 11:53:14;;;;;;;7.80;5.57;;;6.80;99.90;;;;;;5054632;28;20025;-80
2022/04/04 11:55:44;;;;;;;8.02;5.60;;;6.80;99.90;;;;;;5051279;28;20061;-81
2022/04/04 11:58:12;;;;;;;9.05;6.25;;;6.80;99.90;;;;;;5054976;28;20036;-80
2022/04/04 12:00:43;;;;;;;11.18;6.45;;;6.80;99.90;;;;;;5054860;28;20388;-80
2022/04/04 12:03:13;;;;;;;8.68;7.45;;;6.80;99.90;;;;;;5055627;28;20151;-78
2022/04/04 12:05:40;;;;;;;9.95;7.50;;;6.80;99.90;;;;;;5055924;28;20032;-79
2022/04/04 12:08:11;;;;;;;10.85;8.02;;;6.80;99.90;;;;;;5056552;28;20033;-79
2022/04/04 12:10:38;;;;;;;9.75;8.20;;;6.80;99.90;;;;;;5056282;28;20508;-80
2022/04/04 12:13:08;;;;;;;12.82;9.23;;;6.90;99.90;;;;;;5056456;28;20112;-78
2022/04/04 12:15:40;;;;;;;12.90;9.40;;;6.90;99.90;;;;;;5056636;28;20087;-79
2022/04/04 12:18:07;;;;;;;13.10;9.95;;;6.80;99.90;;;;;;5056517;28;20380;-77
2022/04/04 12:20:44;;;;;;;10.77;9.68;;;6.90;99.90;;;;;;5056419;28;20059;-79
2022/04/04 12:26:01;;;;;;;10.98;9.32;;;6.90;99.90;;;;;;5056179;28;20040;-78
2022/04/04 12:28:29;;;;;;;9.13;7.90;;;7.00;99.90;;;;;;5055579;28;20029;-79
2022/04/04 12:30:56;;;;;;;11.07;8.40;;;7.00;99.90;;;;;;5056057;28;20111;-78
2022/04/04 12:33:32;;;;;;;10.20;7.18;;;7.00;99.90;;;;;;5055460;28;20106;-78
2022/04/04 12:35:59;;;;;;;9.07;6.45;;;7.00;99.90;;;;;;5054916;28;20040;-78
2022/04/04 12:38:30;;;;;;;8.35;6.75;;;7.00;99.90;;;;;;5051770;28;20116;-82
2022/04/04 12:41:02;;;;;;;10.15;6.60;;;7.00;99.90;;;;;;5052043;28;20518;-80
2022/04/04 12:43:28;;;;;;;7.20;6.35;;;7.00;99.90;;;;;;5052125;28;20029;-80
2022/04/04 12:45:53;;;;;;;10.25;7.82;;;7.00;99.90;;;;;;5054963;28;20468;-81
2022/04/04 12:48:19;;;;;;;8.00;7.20;;;7.00;99.90;;;;;;5054430;28;20031;-81
2022/04/04 12:50:47;;;;;;;9.50;7.50;;;7.10;99.90;;;;;;5054094;28;20017;-82
2022/04/04 12:53:14;;;;;;;9.07;7.75;;;7.10;99.90;;;;;;5054445;28;20469;-80
2022/04/04 12:55:44;;;;;;;9.25;8.35;;;7.10;99.90;;;;;;5054797;28;20044;-79
2022/04/04 12:58:26;;;;;;;9.40;8.48;;;7.10;99.90;;;;;;5053792;28;20472;-80
2022/04/04 13:00:52;;;;;;;9.52;8.63;;;7.10;99.90;;;;;;5054098;28;20563;-79
2022/04/04 13:03:18;;;;;;;12.02;9.10;;;7.10;99.90;;;;;;5053481;28;20021;-80